sensor_id;sensor_type;location;lat;lon;timestamp;pressure;altitude;pressure_sealevel;temperature;humidity
69245;BME280;56357;52.304;4.870;2023-11-19T00:00:57;100906.53;;;19.80;57.77
69245;BME280;56357;52.304;4.870;2023-11-19T00:03:23;100893.34;;;19.76;57.79
69245;BME280;56357;52.304;4.870;2023-11-19T00:05:49;100904.28;;;19.77;57.74
69245;BME280;56357;52.304;4.870;2023-11-19T00:08:15;100905.44;;;19.76;57.77
69245;BME280;56357;52.304;4.870;2023-11-19T00:10:42;100902.63;;;19.76;57.75
69245;BME280;56357;52.304;4.870;2023-11-19T00:13:08;100900.41;;;19.68;58.01
69245;BME280;56357;52.304;4.870;2023-11-19T00:15:35;100901.50;;;19.72;57.89
69245;BME280;56357;52.304;4.870;2023-11-19T00:18:01;100902.38;;;19.68;57.92
69245;BME280;56357;52.304;4.870;2023-11-19T00:20:30;100889.72;;;19.70;57.86
69245;BME280;56357;52.304;4.870;2023-11-19T00:22:56;100873.97;;;19.69;57.83
69245;BME280;56357;52.304;4.870;2023-11-19T00:25:22;100878.22;;;19.67;57.28
69245;BME280;56357;52.304;4.870;2023-11-19T00:27:50;100875.13;;;19.68;58.00
69245;BME280;56357;52.304;4.870;2023-11-19T00:30:18;100880.50;;;19.65;57.93
69245;BME280;56357;52.304;4.870;2023-11-19T00:32:45;100885.53;;;19.68;57.94
69245;BME280;56357;52.304;4.870;2023-11-19T00:35:11;100874.56;;;19.66;58.04
69245;BME280;56357;52.304;4.870;2023-11-19T00:37:39;100878.50;;;19.65;57.96
69245;BME280;56357;52.304;4.870;2023-11-19T00:40:08;100894.25;;;19.66;57.96
69245;BME280;56357;52.304;4.870;2023-11-19T00:42:35;100890.88;;;19.64;58.03
69245;BME280;56357;52.304;4.870;2023-11-19T00:45:02;100878.25;;;19.62;57.88
69245;BME280;56357;52.304;4.870;2023-11-19T00:47:28;100882.44;;;19.64;57.95
69245;BME280;56357;52.304;4.870;2023-11-19T00:49:56;100881.66;;;19.59;58.06
69245;BME280;56357;52.304;4.870;2023-11-19T00:52:22;100870.97;;;19.61;57.96
69245;BME280;56357;52.304;4.870;2023-11-19T00:54:48;100885.84;;;19.61;58.39
69245;BME280;56357;52.304;4.870;2023-11-19T00:57:16;100872.94;;;19.60;57.99
69245;BME280;56357;52.304;4.870;2023-11-19T00:59:43;100870.72;;;19.57;57.91
69245;BME280;56357;52.304;4.870;2023-11-19T01:02:09;100867.91;;;19.57;57.94
69245;BME280;56357;52.304;4.870;2023-11-19T01:04:36;100862.25;;;19.62;57.90
69245;BME280;56357;52.304;4.870;2023-11-19T01:07:04;100863.72;;;19.50;58.14
69245;BME280;56357;52.304;4.870;2023-11-19T01:09:34;100852.16;;;19.56;57.97
69245;BME280;56357;52.304;4.870;2023-11-19T01:12:01;100863.69;;;19.55;57.95
69245;BME280;56357;52.304;4.870;2023-11-19T01:14:28;100846.84;;;19.55;58.08
69245;BME280;56357;52.304;4.870;2023-11-19T01:16:55;100849.34;;;19.56;57.92
69245;BME280;56357;52.304;4.870;2023-11-19T01:19:21;100848.84;;;19.49;58.14
69245;BME280;56357;52.304;4.870;2023-11-19T01:21:49;100843.47;;;19.53;58.10
69245;BME280;56357;52.304;4.870;2023-11-19T01:24:16;100838.44;;;19.50;58.03
69245;BME280;56357;52.304;4.870;2023-11-19T01:26:43;100836.16;;;19.57;57.77
69245;BME280;56357;52.304;4.870;2023-11-19T01:29:11;100843.78;;;19.51;57.99
69245;BME280;56357;52.304;4.870;2023-11-19T01:31:45;100840.38;;;19.54;57.77
69245;BME280;56357;52.304;4.870;2023-11-19T01:34:11;100842.63;;;19.52;57.90
69245;BME280;56357;52.304;4.870;2023-11-19T01:36:38;100853.88;;;19.52;57.79
69245;BME280;56357;52.304;4.870;2023-11-19T01:39:04;100840.13;;;19.51;58.12
69245;BME280;56357;52.304;4.870;2023-11-19T01:41:37;100859.53;;;19.47;58.03
69245;BME280;56357;52.304;4.870;2023-11-19T01:44:05;100871.25;;;19.59;57.80
69245;BME280;56357;52.304;4.870;2023-11-19T01:46:33;100871.81;;;19.56;57.84
69245;BME280;56357;52.304;4.870;2023-11-19T01:49:01;100880.00;;;19.53;57.86
69245;BME280;56357;52.304;4.870;2023-11-19T01:51:28;100870.72;;;19.52;57.96
69245;BME280;56357;52.304;4.870;2023-11-19T01:53:55;100862.34;;;19.47;58.11
69245;BME280;56357;52.304;4.870;2023-11-19T01:56:23;100858.69;;;19.47;57.84
69245;BME280;56357;52.304;4.870;2023-11-19T01:58:51;100849.38;;;19.51;57.86
69245;BME280;56357;52.304;4.870;2023-11-19T02:01:19;100845.47;;;19.47;57.88
69245;BME280;56357;52.304;4.870;2023-11-19T02:03:45;100851.66;;;19.44;58.14
69245;BME280;56357;52.304;4.870;2023-11-19T02:06:12;100847.22;;;19.38;58.11
69245;BME280;56357;52.304;4.870;2023-11-19T02:08:39;100852.81;;;19.43;57.90
69245;BME280;56357;52.304;4.870;2023-11-19T02:11:05;100863.75;;;19.45;57.91
69245;BME280;56357;52.304;4.870;2023-11-19T02:13:33;100859.56;;;19.37;58.04
69245;BME280;56357;52.304;4.870;2023-11-19T02:16:01;100869.09;;;19.41;58.14
69245;BME280;56357;52.304;4.870;2023-11-19T02:18:28;100869.94;;;19.42;58.13
69245;BME280;56357;52.304;4.870;2023-11-19T02:20:56;100862.91;;;19.44;57.97
69245;BME280;56357;52.304;4.870;2023-11-19T02:23:25;100868.84;;;19.38;57.87
69245;BME280;56357;52.304;4.870;2023-11-19T02:28:49;100859.53;;;19.42;57.79
69245;BME280;56357;52.304;4.870;2023-11-19T02:31:16;100858.47;;;19.33;58.12
69245;BME280;56357;52.304;4.870;2023-11-19T02:33:44;100859.00;;;19.40;58.02
69245;BME280;56357;52.304;4.870;2023-11-19T02:36:10;100846.09;;;19.39;57.75
69245;BME280;56357;52.304;4.870;2023-11-19T02:38:37;100849.16;;;19.43;57.74
69245;BME280;56357;52.304;4.870;2023-11-19T02:41:04;100838.81;;;19.33;58.07
69245;BME280;56357;52.304;4.870;2023-11-19T02:43:32;100848.03;;;19.39;58.04
69245;BME280;56357;52.304;4.870;2023-11-19T02:46:05;100855.09;;;19.36;57.90
69245;BME280;56357;52.304;4.870;2023-11-19T02:48:33;100848.94;;;19.34;58.10
69245;BME280;56357;52.304;4.870;2023-11-19T02:51:00;100840.78;;;19.33;57.84
69245;BME280;56357;52.304;4.870;2023-11-19T02:53:29;100855.81;;;18.93;58.76
69245;BME280;56357;52.304;4.870;2023-11-19T02:55:55;100856.63;;;18.98;59.12
69245;BME280;56357;52.304;4.870;2023-11-19T02:58:27;100857.50;;;18.94;59.18
69245;BME280;56357;52.304;4.870;2023-11-19T03:00:55;100858.09;;;18.86;59.47
69245;BME280;56357;52.304;4.870;2023-11-19T03:03:25;100863.69;;;18.81;59.49
69245;BME280;56357;52.304;4.870;2023-11-19T03:05:56;100863.69;;;18.81;59.42
69245;BME280;56357;52.304;4.870;2023-11-19T03:08:22;100860.59;;;18.87;59.20
69245;BME280;56357;52.304;4.870;2023-11-19T03:10:48;100860.91;;;18.81;59.68
69245;BME280;56357;52.304;4.870;2023-11-19T03:13:15;100857.00;;;18.77;59.57
69245;BME280;56357;52.304;4.870;2023-11-19T03:15:42;100857.00;;;18.77;59.40
69245;BME280;56357;52.304;4.870;2023-11-19T03:18:08;100844.94;;;18.71;59.59
69245;BME280;56357;52.304;4.870;2023-11-19T03:20:34;100836.78;;;18.80;59.51
69245;BME280;56357;52.304;4.870;2023-11-19T03:23:01;100843.25;;;18.75;59.15
69245;BME280;56357;52.304;4.870;2023-11-19T03:25:28;100836.22;;;18.78;59.12
69245;BME280;56357;52.304;4.870;2023-11-19T03:27:59;100843.25;;;18.75;59.61
69245;BME280;56357;52.304;4.870;2023-11-19T03:30:25;100841.03;;;18.72;59.56
69245;BME280;56357;52.304;4.870;2023-11-19T03:32:53;100838.75;;;18.79;59.29
69245;BME280;56357;52.304;4.870;2023-11-19T03:35:19;100829.50;;;18.74;59.51
69245;BME280;56357;52.304;4.870;2023-11-19T03:37:46;100821.38;;;18.72;59.35
69245;BME280;56357;52.304;4.870;2023-11-19T03:40:12;100831.19;;;18.70;59.04
69245;BME280;56357;52.304;4.870;2023-11-19T03:42:40;100835.69;;;18.71;59.07
69245;BME280;56357;52.304;4.870;2023-11-19T03:45:07;100845.81;;;18.67;59.13
69245;BME280;56357;52.304;4.870;2023-11-19T03:47:34;100853.41;;;18.61;59.29
69245;BME280;56357;52.304;4.870;2023-11-19T03:50:01;100849.72;;;18.66;59.23
69245;BME280;56357;52.304;4.870;2023-11-19T03:52:28;100846.63;;;18.67;59.48
69245;BME280;56357;52.304;4.870;2023-11-19T03:54:55;100864.31;;;18.58;59.60
69245;BME280;56357;52.304;4.870;2023-11-19T03:57:22;100853.63;;;18.70;59.16
69245;BME280;56357;52.304;4.870;2023-11-19T03:59:49;100862.06;;;18.75;59.53
69245;BME280;56357;52.304;4.870;2023-11-19T04:02:16;100868.25;;;18.67;59.33
69245;BME280;56357;52.304;4.870;2023-11-19T04:04:42;100854.22;;;18.67;59.37
69245;BME280;56357;52.304;4.870;2023-11-19T04:07:09;100853.09;;;18.68;58.87
69245;BME280;56357;52.304;4.870;2023-11-19T04:09:35;100852.81;;;18.74;59.58
69245;BME280;56357;52.304;4.870;2023-11-19T04:12:02;100866.00;;;18.69;59.15
69245;BME280;56357;52.304;4.870;2023-11-19T04:14:29;100874.97;;;18.71;59.59
69245;BME280;56357;52.304;4.870;2023-11-19T04:16:55;100865.94;;;18.79;59.24
69245;BME280;56357;52.304;4.870;2023-11-19T04:19:22;100876.09;;;18.70;59.41
69245;BME280;56357;52.304;4.870;2023-11-19T04:21:49;100875.50;;;18.78;59.25
69245;BME280;56357;52.304;4.870;2023-11-19T04:24:17;100872.69;;;18.78;59.22
69245;BME280;56357;52.304;4.870;2023-11-19T04:26:44;100873.84;;;18.72;59.39
69245;BME280;56357;52.304;4.870;2023-11-19T04:29:15;100878.88;;;18.80;59.36
69245;BME280;56357;52.304;4.870;2023-11-19T04:31:43;100871.56;;;18.79;59.29
69245;BME280;56357;52.304;4.870;2023-11-19T04:34:10;100858.09;;;18.86;59.41
69245;BME280;56357;52.304;4.870;2023-11-19T04:36:37;100858.69;;;18.78;59.17
69245;BME280;56357;52.304;4.870;2023-11-19T04:39:04;100852.50;;;18.76;59.42
69245;BME280;56357;52.304;4.870;2023-11-19T04:41:35;100854.72;;;18.84;59.69
69245;BME280;56357;52.304;4.870;2023-11-19T04:44:02;100861.75;;;18.81;59.02
69245;BME280;56357;52.304;4.870;2023-11-19T04:46:28;100860.84;;;19.01;59.04
69245;BME280;56357;52.304;4.870;2023-11-19T04:48:54;100867.03;;;18.93;58.67
69245;BME280;56357;52.304;4.870;2023-11-19T04:51:21;100862.25;;;19.03;58.99
69245;BME280;56357;52.304;4.870;2023-11-19T04:53:47;100862.81;;;19.00;59.13
69245;BME280;56357;52.304;4.870;2023-11-19T04:56:14;100861.69;;;19.01;59.29
69245;BME280;56357;52.304;4.870;2023-11-19T04:58:41;100860.59;;;18.87;58.96
69245;BME280;56357;52.304;4.870;2023-11-19T05:01:13;100870.94;;;19.02;58.73
69245;BME280;56357;52.304;4.870;2023-11-19T05:03:40;100868.13;;;19.02;59.04
69245;BME280;56357;52.304;4.870;2023-11-19T05:06:07;100868.38;;;19.10;59.06
69245;BME280;56357;52.304;4.870;2023-11-19T05:08:33;100860.53;;;19.02;59.26
69245;BME280;56357;52.304;4.870;2023-11-19T05:11:00;100861.91;;;19.10;58.92
69245;BME280;56357;52.304;4.870;2023-11-19T05:13:26;100871.47;;;19.09;58.40
69245;BME280;56357;52.304;4.870;2023-11-19T05:15:52;100867.81;;;19.08;58.92
69245;BME280;56357;52.304;4.870;2023-11-19T05:18:20;100872.03;;;19.06;58.24
69245;BME280;56357;52.304;4.870;2023-11-19T05:20:46;100867.31;;;19.01;59.06
69245;BME280;56357;52.304;4.870;2023-11-19T05:23:13;100873.19;;;19.00;59.05
69245;BME280;56357;52.304;4.870;2023-11-19T05:25:39;100868.41;;;19.05;59.10
69245;BME280;56357;52.304;4.870;2023-11-19T05:28:07;100874.25;;;19.14;58.80
69245;BME280;56357;52.304;4.870;2023-11-19T05:30:33;100876.47;;;19.22;58.44
69245;BME280;56357;52.304;4.870;2023-11-19T05:33:00;100869.75;;;19.18;58.83
69245;BME280;56357;52.304;4.870;2023-11-19T05:35:26;100875.94;;;19.15;58.86
69245;BME280;56357;52.304;4.870;2023-11-19T05:37:53;100879.59;;;19.10;58.86
69245;BME280;56357;52.304;4.870;2023-11-19T05:40:21;100875.94;;;19.15;58.04
69245;BME280;56357;52.304;4.870;2023-11-19T05:42:47;100872.28;;;19.09;58.78
69245;BME280;56357;52.304;4.870;2023-11-19T05:45:13;100884.69;;;19.03;58.96
69245;BME280;56357;52.304;4.870;2023-11-19T05:47:40;100888.03;;;19.10;58.95
69245;BME280;56357;52.304;4.870;2023-11-19T05:50:07;100873.06;;;19.25;58.33
69245;BME280;56357;52.304;4.870;2023-11-19T05:52:34;100876.50;;;19.12;59.07
69245;BME280;56357;52.304;4.870;2023-11-19T05:55:00;100875.63;;;19.22;58.78
69245;BME280;56357;52.304;4.870;2023-11-19T05:57:29;100879.31;;;19.17;58.48
69245;BME280;56357;52.304;4.870;2023-11-19T05:59:55;100882.94;;;19.17;58.60
69245;BME280;56357;52.304;4.870;2023-11-19T06:02:23;100889.91;;;19.30;58.69
69245;BME280;56357;52.304;4.870;2023-11-19T06:04:50;100895.28;;;19.27;58.70
69245;BME280;56357;52.304;4.870;2023-11-19T06:07:16;100879.31;;;19.12;58.64
69245;BME280;56357;52.304;4.870;2023-11-19T06:09:42;100886.00;;;19.26;58.65
69245;BME280;56357;52.304;4.870;2023-11-19T06:12:09;100881.25;;;19.22;58.18
69245;BME280;56357;52.304;4.870;2023-11-19T06:14:35;100872.53;;;19.23;58.69
69245;BME280;56357;52.304;4.870;2023-11-19T06:17:02;100872.53;;;19.23;58.66
69245;BME280;56357;52.304;4.870;2023-11-19T06:19:30;100874.50;;;19.17;58.44
69245;BME280;56357;52.304;4.870;2023-11-19T06:21:57;100873.09;;;19.20;58.69
69245;BME280;56357;52.304;4.870;2023-11-19T06:24:23;100877.31;;;19.23;58.52
69245;BME280;56357;52.304;4.870;2023-11-19T06:26:49;100890.50;;;19.22;58.90
69245;BME280;56357;52.304;4.870;2023-11-19T06:29:16;100882.13;;;19.12;58.46
69245;BME280;56357;52.304;4.870;2023-11-19T06:31:44;100873.69;;;19.17;58.58
69245;BME280;56357;52.304;4.870;2023-11-19T06:34:11;100874.81;;;19.16;58.53
69245;BME280;56357;52.304;4.870;2023-11-19T06:36:38;100878.75;;;19.10;59.11
69245;BME280;56357;52.304;4.870;2023-11-19T06:39:04;100871.16;;;19.21;58.08
69245;BME280;56357;52.304;4.870;2023-11-19T06:41:31;100869.72;;;19.23;59.16
69245;BME280;56357;52.304;4.870;2023-11-19T06:43:57;100880.38;;;19.21;58.61
69245;BME280;56357;52.304;4.870;2023-11-19T06:46:25;100878.44;;;19.27;58.73
69245;BME280;56357;52.304;4.870;2023-11-19T06:48:51;100874.22;;;19.24;59.18
69245;BME280;56357;52.304;4.870;2023-11-19T06:51:17;100890.53;;;19.17;58.76
69245;BME280;56357;52.304;4.870;2023-11-19T06:53:43;100888.00;;;19.21;58.99
69245;BME280;56357;52.304;4.870;2023-11-19T06:56:21;100879.81;;;19.34;58.82
69245;BME280;56357;52.304;4.870;2023-11-19T06:58:47;100887.97;;;19.26;58.36
69245;BME280;56357;52.304;4.870;2023-11-19T07:01:17;100897.81;;;19.18;58.89
69245;BME280;56357;52.304;4.870;2023-11-19T07:03:47;100901.78;;;19.17;58.96
69245;BME280;56357;52.304;4.870;2023-11-19T07:06:14;100896.41;;;19.21;58.54
69245;BME280;56357;52.304;4.870;2023-11-19T07:08:41;100912.69;;;19.24;58.32
69245;BME280;56357;52.304;4.870;2023-11-19T07:11:09;100909.28;;;19.37;58.74
69245;BME280;56357;52.304;4.870;2023-11-19T07:13:37;100901.69;;;19.37;58.13
69245;BME280;56357;52.304;4.870;2023-11-19T07:16:04;100904.53;;;19.32;58.96
69245;BME280;56357;52.304;4.870;2023-11-19T07:18:30;100902.28;;;19.24;58.97
69245;BME280;56357;52.304;4.870;2023-11-19T07:20:57;100909.31;;;19.27;58.80
69245;BME280;56357;52.304;4.870;2023-11-19T07:23:24;100909.56;;;19.25;59.13
69245;BME280;56357;52.304;4.870;2023-11-19T07:25:51;100911.53;;;19.30;58.75
69245;BME280;56357;52.304;4.870;2023-11-19T07:28:18;100900.03;;;19.26;58.45
69245;BME280;56357;52.304;4.870;2023-11-19T07:30:44;100913.78;;;19.28;58.16
69245;BME280;56357;52.304;4.870;2023-11-19T07:33:11;100910.16;;;19.22;58.64
69245;BME280;56357;52.304;4.870;2023-11-19T07:35:39;100912.13;;;19.22;58.08
69245;BME280;56357;52.304;4.870;2023-11-19T07:38:06;100910.16;;;19.22;58.44
69245;BME280;56357;52.304;4.870;2023-11-19T07:40:32;100906.50;;;19.27;58.57
69245;BME280;56357;52.304;4.870;2023-11-19T07:42:59;100910.16;;;19.22;58.30
69245;BME280;56357;52.304;4.870;2023-11-19T07:45:25;100906.22;;;19.23;58.68
69245;BME280;56357;52.304;4.870;2023-11-19T07:47:52;100915.19;;;19.30;58.51
69245;BME280;56357;52.304;4.870;2023-11-19T07:50:19;100918.59;;;19.32;58.36
69245;BME280;56357;52.304;4.870;2023-11-19T07:52:46;100915.78;;;19.22;58.28
69245;BME280;56357;52.304;4.870;2023-11-19T07:55:12;100906.22;;;19.33;57.83
69245;BME280;56357;52.304;4.870;2023-11-19T07:57:39;100918.00;;;19.40;58.31
69245;BME280;56357;52.304;4.870;2023-11-19T08:00:05;100907.03;;;19.39;58.34
69245;BME280;56357;52.304;4.870;2023-11-19T08:02:32;100905.63;;;19.41;57.69
69245;BME280;56357;52.304;4.870;2023-11-19T08:04:58;100910.38;;;19.46;57.89
69245;BME280;56357;52.304;4.870;2023-11-19T08:07:25;100904.50;;;19.27;58.62
69245;BME280;56357;52.304;4.870;2023-11-19T08:09:52;100897.16;;;19.46;58.28
69245;BME280;56357;52.304;4.870;2023-11-19T08:12:18;100893.22;;;19.47;58.64
69245;BME280;56357;52.304;4.870;2023-11-19T08:14:44;100912.59;;;19.49;58.03
69245;BME280;56357;52.304;4.870;2023-11-19T08:17:11;100896.03;;;19.47;58.32
69245;BME280;56357;52.304;4.870;2023-11-19T08:19:37;100910.63;;;19.49;57.14
69245;BME280;56357;52.304;4.870;2023-11-19T08:22:04;100917.66;;;19.47;58.41
69245;BME280;56357;52.304;4.870;2023-11-19T08:24:30;100922.16;;;19.48;58.01
69245;BME280;56357;52.304;4.870;2023-11-19T08:26:56;100916.22;;;19.59;57.57
69245;BME280;56357;52.304;4.870;2023-11-19T08:29:23;100913.66;;;19.63;57.88
69245;BME280;56357;52.304;4.870;2023-11-19T08:31:49;100920.13;;;19.58;58.57
69245;BME280;56357;52.304;4.870;2023-11-19T08:34:16;100920.25;;;19.38;57.71
69245;BME280;56357;52.304;4.870;2023-11-19T08:36:42;100917.38;;;19.53;56.66
69245;BME280;56357;52.304;4.870;2023-11-19T08:39:08;100927.50;;;19.49;56.89
69245;BME280;56357;52.304;4.870;2023-11-19T08:41:35;100920.75;;;19.45;57.43
69245;BME280;56357;52.304;4.870;2023-11-19T08:44:03;100916.44;;;19.68;57.36
69245;BME280;56357;52.304;4.870;2023-11-19T08:46:29;100925.75;;;19.58;57.06
69245;BME280;56357;52.304;4.870;2023-11-19T08:48:56;100927.16;;;19.56;56.47
69245;BME280;56357;52.304;4.870;2023-11-19T08:51:22;100923.63;;;19.40;57.82
69245;BME280;56357;52.304;4.870;2023-11-19T08:53:50;100923.06;;;19.38;57.26
69245;BME280;56357;52.304;4.870;2023-11-19T08:56:16;100932.25;;;19.49;57.22
69245;BME280;56357;52.304;4.870;2023-11-19T08:58:42;100935.38;;;19.47;57.90
69245;BME280;56357;52.304;4.870;2023-11-19T09:01:09;100906.94;;;19.54;57.67
69245;BME280;56357;52.304;4.870;2023-11-19T09:03:35;100922.13;;;19.53;57.67
69245;BME280;56357;52.304;4.870;2023-11-19T09:06:02;100925.09;;;19.71;57.58
69245;BME280;56357;52.304;4.870;2023-11-19T09:08:28;100908.03;;;19.63;57.39
69245;BME280;56357;52.304;4.870;2023-11-19T09:10:55;100910.03;;;19.52;58.13
69245;BME280;56357;52.304;4.870;2023-11-19T09:13:21;100906.94;;;19.59;57.49
69245;BME280;56357;52.304;4.870;2023-11-19T09:15:48;100904.97;;;19.54;57.85
69245;BME280;56357;52.304;4.870;2023-11-19T09:18:14;100909.69;;;19.64;57.29
69245;BME280;56357;52.304;4.870;2023-11-19T09:20:41;100912.22;;;19.65;57.88
69245;BME280;56357;52.304;4.870;2023-11-19T09:23:07;100913.09;;;19.61;57.33
69245;BME280;56357;52.304;4.870;2023-11-19T09:25:34;100921.19;;;19.72;57.19
69245;BME280;56357;52.304;4.870;2023-11-19T09:28:01;100915.63;;;19.62;57.38
69245;BME280;56357;52.304;4.870;2023-11-19T09:30:27;100915.50;;;19.82;57.72
69245;BME280;56357;52.304;4.870;2023-11-19T09:32:54;100924.44;;;19.89;57.12
69245;BME280;56357;52.304;4.870;2023-11-19T09:35:20;100920.94;;;19.69;57.26
69245;BME280;56357;52.304;4.870;2023-11-19T09:37:46;100906.69;;;19.50;57.21
69245;BME280;56357;52.304;4.870;2023-11-19T09:40:13;100906.69;;;19.50;57.06
69245;BME280;56357;52.304;4.870;2023-11-19T09:42:43;100909.69;;;19.64;56.77
69245;BME280;56357;52.304;4.870;2023-11-19T09:45:14;100913.16;;;19.51;56.82
69245;BME280;56357;52.304;4.870;2023-11-19T09:47:46;100919.03;;;19.59;57.03
69245;BME280;56357;52.304;4.870;2023-11-19T09:50:16;100904.88;;;19.69;57.32
69245;BME280;56357;52.304;4.870;2023-11-19T09:52:43;100912.22;;;19.70;56.90
69245;BME280;56357;52.304;4.870;2023-11-19T09:55:10;100905.47;;;19.66;57.25
69245;BME280;56357;52.304;4.870;2023-11-19T09:57:38;100904.88;;;19.69;57.88
69245;BME280;56357;52.304;4.870;2023-11-19T10:00:06;100903.72;;;19.75;57.81
69245;BME280;56357;52.304;4.870;2023-11-19T10:02:35;100902.38;;;19.73;58.11
69245;BME280;56357;52.304;4.870;2023-11-19T10:05:09;100903.72;;;19.75;57.60
69245;BME280;56357;52.304;4.870;2023-11-19T10:07:38;100905.19;;;19.73;57.83
69245;BME280;56357;52.304;4.870;2023-11-19T10:10:05;100905.97;;;19.78;58.00
69245;BME280;56357;52.304;4.870;2023-11-19T10:12:32;100911.56;;;19.83;57.03
69245;BME280;56357;52.304;4.870;2023-11-19T10:14:59;100910.06;;;19.96;57.05
69245;BME280;56357;52.304;4.870;2023-11-19T10:17:32;100906.78;;;19.84;58.15
69245;BME280;56357;52.304;4.870;2023-11-19T10:19:59;100912.03;;;19.95;56.75
69245;BME280;56357;52.304;4.870;2023-11-19T10:22:27;100898.28;;;19.94;57.32
69245;BME280;56357;52.304;4.870;2023-11-19T10:24:54;100916.25;;;19.93;57.42
69245;BME280;56357;52.304;4.870;2023-11-19T10:27:20;100908.63;;;19.98;57.08
69245;BME280;56357;52.304;4.870;2023-11-19T10:29:47;100900.94;;;20.14;56.91
69245;BME280;56357;52.304;4.870;2023-11-19T10:32:14;100898.78;;;20.01;57.92
69245;BME280;56357;52.304;4.870;2023-11-19T10:34:40;100878.97;;;20.21;56.31
69245;BME280;56357;52.304;4.870;2023-11-19T10:37:08;100883.94;;;20.29;57.54
69245;BME280;56357;52.304;4.870;2023-11-19T10:39:54;100904.97;;;20.42;57.06
69245;BME280;56357;52.304;4.870;2023-11-19T10:42:21;100884.72;;;20.68;56.13
69245;BME280;56357;52.304;4.870;2023-11-19T10:44:47;100894.09;;;20.59;56.66
69245;BME280;56357;52.304;4.870;2023-11-19T10:47:14;100891.69;;;20.71;55.68
69245;BME280;56357;52.304;4.870;2023-11-19T10:49:42;100891.97;;;20.46;56.74
69245;BME280;56357;52.304;4.870;2023-11-19T10:52:09;100905.22;;;20.40;56.85
69245;BME280;56357;52.304;4.870;2023-11-19T10:54:37;100896.00;;;20.63;56.46
69245;BME280;56357;52.304;4.870;2023-11-19T10:57:08;100908.25;;;20.77;55.90
69245;BME280;56357;52.304;4.870;2023-11-19T10:59:36;100906.44;;;20.63;56.25
69245;BME280;56357;52.304;4.870;2023-11-19T11:02:08;100897.88;;;20.73;56.63
69245;BME280;56357;52.304;4.870;2023-11-19T11:04:39;100901.69;;;20.58;56.66
69245;BME280;56357;52.304;4.870;2023-11-19T11:07:07;100900.81;;;20.34;56.52
69245;BME280;56357;52.304;4.870;2023-11-19T11:09:35;100903.22;;;20.46;57.32
69245;BME280;56357;52.304;4.870;2023-11-19T11:12:01;100911.53;;;20.61;57.23
69245;BME280;56357;52.304;4.870;2023-11-19T11:14:28;100899.25;;;20.75;56.85
69245;BME280;56357;52.304;4.870;2023-11-19T11:16:56;100899.19;;;20.57;56.77
69245;BME280;56357;52.304;4.870;2023-11-19T11:19:22;100910.34;;;20.67;57.08
69245;BME280;56357;52.304;4.870;2023-11-19T11:21:51;100902.44;;;20.69;56.79
69245;BME280;56357;52.304;4.870;2023-11-19T11:24:45;100897.09;;;20.39;56.66
69245;BME280;56357;52.304;4.870;2023-11-19T11:30:27;100899.72;;;20.59;56.84
69245;BME280;56357;52.304;4.870;2023-11-19T11:33:25;100900.13;;;20.76;56.73
69245;BME280;56357;52.304;4.870;2023-11-19T11:36:02;100878.13;;;20.78;55.98
69245;BME280;56357;52.304;4.870;2023-11-19T11:38:36;100889.81;;;20.38;56.22
69245;BME280;56357;52.304;4.870;2023-11-19T11:41:16;100886.13;;;20.66;57.10
69245;BME280;56357;52.304;4.870;2023-11-19T11:43:53;100881.84;;;20.73;56.68
69245;BME280;56357;52.304;4.870;2023-11-19T11:49:10;100872.78;;;21.05;55.55
69245;BME280;56357;52.304;4.870;2023-11-19T11:54:30;100873.22;;;20.88;55.87
69245;BME280;56357;52.304;4.870;2023-11-19T11:57:13;100878.19;;;21.02;55.90
69245;BME280;56357;52.304;4.870;2023-11-19T12:02:09;100879.66;;;20.65;56.80
69245;BME280;56357;52.304;4.870;2023-11-19T12:04:36;100877.22;;;20.59;56.28
69245;BME280;56357;52.304;4.870;2023-11-19T12:07:08;100866.50;;;20.84;56.39
69245;BME280;56357;52.304;4.870;2023-11-19T12:09:36;100872.63;;;20.91;55.92
69245;BME280;56357;52.304;4.870;2023-11-19T12:20:06;100872.00;;;20.42;56.93
69245;BME280;56357;52.304;4.870;2023-11-19T12:22:37;100872.94;;;20.33;57.76
69245;BME280;56357;52.304;4.870;2023-11-19T12:25:05;100869.09;;;20.24;58.17
69245;BME280;56357;52.304;4.870;2023-11-19T12:27:32;100874.19;;;20.22;57.30
69245;BME280;56357;52.304;4.870;2023-11-19T12:30:00;100879.81;;;20.22;57.77
69245;BME280;56357;52.304;4.870;2023-11-19T12:32:37;100878.72;;;20.13;57.95
69245;BME280;56357;52.304;4.870;2023-11-19T12:35:04;100865.00;;;20.06;58.06
69245;BME280;56357;52.304;4.870;2023-11-19T12:37:30;100866.34;;;20.14;58.14
69245;BME280;56357;52.304;4.870;2023-11-19T12:39:57;100879.25;;;20.20;57.87
69245;BME280;56357;52.304;4.870;2023-11-19T12:42:36;100883.22;;;20.14;57.88
69245;BME280;56357;52.304;4.870;2023-11-19T12:45:04;100870.53;;;20.16;57.81
69245;BME280;56357;52.304;4.870;2023-11-19T12:47:31;100868.91;;;20.10;57.21
69245;BME280;56357;52.304;4.870;2023-11-19T12:49:57;100868.06;;;20.09;57.63
69245;BME280;56357;52.304;4.870;2023-11-19T12:52:24;100868.31;;;20.18;58.18
69245;BME280;56357;52.304;4.870;2023-11-19T12:54:51;100871.47;;;20.06;57.69
69245;BME280;56357;52.304;4.870;2023-11-19T12:57:18;100868.97;;;20.05;57.17
69245;BME280;56357;52.304;4.870;2023-11-19T12:59:54;100862.97;;;20.12;57.73
69245;BME280;56357;52.304;4.870;2023-11-19T13:02:21;100867.50;;;20.13;57.25
69245;BME280;56357;52.304;4.870;2023-11-19T13:04:48;100864.19;;;20.05;57.73
69245;BME280;56357;52.304;4.870;2023-11-19T13:07:20;100869.53;;;20.02;58.30
69245;BME280;56357;52.304;4.870;2023-11-19T13:09:46;100868.41;;;20.03;58.48
69245;BME280;56357;52.304;4.870;2023-11-19T13:12:16;100869.28;;;19.98;57.79
69245;BME280;56357;52.304;4.870;2023-11-19T13:14:42;100868.09;;;20.04;58.06